Aeroporto :
LOGIN :

Iscrizione | Disclaimer

   EN    FR    IT 

 










Sommario :    VFR   VFR Marginale   IFR   IFR Intensivo   IFR Molto Intensivo
Visibilità : 
Base nubi : 
>= 8 km
>= 3000ft
5 / 8 km
1000 / 3000 ft
1500m / 5 km
500 / 1000 ft
800 / 1500m
200 / 500 ft
< 800m
< 200 ft
Simboli :   Temporali  Nebbia  Neve Forte  Precipitazioni Forti  Vento > 20 kt
SIGMETs :   Varie  Temporali  Ghiacco  Turbolenza  Onda orograficha  Ceneri Vulcaniche







- Altitudine del aeroporto : 247 ft
- Codice IATA : BLL


EKBI - Billund

ULTIMO METAR :
  • 240420Z AUTO 21009KT 9999 BKN036/// BKN050/// 09/07 Q1010

METARs OBSOLETI :
  • 240350Z AUTO 19007KT 9999 FEW036/// SCT050/// BKN150/// 09/07 Q1010
  • 240320Z AUTO 19007KT 9999 FEW042/// BKN150/// 08/06 Q1010
  • 240250Z AUTO 19007KT 9999 NCD 07/06 Q1011
  • 240220Z AUTO 18007KT 9999 NCD 07/06 Q1011
  • 240150Z AUTO 19006KT 9999 NCD 07/06 Q1011

TAF TAF EKBI
Valido dal 24 a 00 ore il 25 a 00 ore UTC


232302Z 2400/2424 20006KT 9999 FEW020
PROB40 2400/2404 4000 BR
BECMG 2406/2409 26012KT
TEMPO 2409/2416 -RA BKN010
Nessun NOTAM noto per questo aeroporto.



MetMap, La meteo Aeronautica in un colpo d'occhio ! - Copyright ORBIFLY Dicembre 2007 - Disclaimer

ORBIFLY MET'MAP TEAM :

Programmazione e sviluppo : Alexandra Zaïnal
Concezione e sviluppo : Baudouin d'Aumeries
Co-Programmazione e sviluppo : Marc-Olivier Méhu
Supporto tecnico e logistico : Manuel Goepfert
Aiuto per la traduzione : Arnaldo La Scala

Contatto : metmap@orbifly.com




FONTI E CREDITI :

   NOAA